• Join FlightAware (Why Join?)
  • Login
  • US Flag 
05:06AM EDT


 

Airport Tracker/Info


-or-


 

Live Flight TrackerFlight Track Log ✈ SWA3317 ✈ 27-Dec-2013 ✈ KATL - KDEN

Flight Track Log - Related Links

Times and Time Zones

All times are in EST time to prevent confusion due to time zone crossing. See the SWA3317 flight status page for this flight to view local times or setup timezone preferences in your user account.

Time Position Orientation Groundspeed Altitude Reporting Facility
EST Latitude Longitude Course Direction KTS MPH feet Rate Location/Type
07:21AM 33.6500 -84.3500 282° West 196 226 3,300  Level Atlanta TRACON
07:22AM 33.6833 -84.2833 59° Northeast 234 269 5,300 2,220 Climbing Atlanta TRACON
07:23AM 33.7500 -84.2833 360° North 269 310 7,300 2,400 Climbing Atlanta TRACON
07:24AM 33.8106 -84.3739 309° West 280 322 11,200 2,520 Climbing Atlanta Center
07:25AM 33.8122 -84.4764 271° West 259 298 13,800 2,940 Climbing Atlanta Center
07:26AM 33.8727 -84.9914 282° West  Level Estimated
07:26AM 33.8117 -84.5914 270° West 306 352 17,100  Level Atlanta Center
07:27AM 33.8133 -84.7139 271° West 357 411 19,400 2,340 Climbing Atlanta Center
07:29AM 33.8219 -84.9789 272° West 382 440 24,200 2,400 Climbing Atlanta Center
07:30AM 33.8253 -85.1042 272° West 387 445 26,700 2,160 Climbing Atlanta Center
07:31AM 33.8303 -85.2367 273° West 385 443 28,600 2,100 Climbing Atlanta Center
07:32AM 33.8331 -85.3592 272° West 380 437 31,000 2,040 Climbing Atlanta Center
07:33AM 33.8381 -85.4819 273° West 373 429 32,700 1,620 Climbing Atlanta Center
07:34AM 33.8406 -85.6044 271° West 373 429 34,300 1,500 Climbing Atlanta Center
07:35AM 33.8642 -85.7250 283° West 367 422 35,700 1,260 Climbing Atlanta Center
07:36AM 33.8942 -85.8231 290° West 372 428 36,900 600 Climbing Atlanta Center
07:37AM 33.9319 -85.9417 291° West 367 422 37,000  Climbing Atlanta Center
07:38AM 33.9678 -86.0525 291° West 367 422 37,000 300 Level Atlanta Center
07:39AM 34.0014 -86.1686 289° West 372 428 37,700 480 Climbing Atlanta Center
07:40AM 34.0325 -86.2872 288° West 372 428 38,000 120 Climbing Atlanta Center
07:41AM 34.0681 -86.4036 290° West 372 428 38,000  Level Atlanta Center
07:42AM 34.1011 -86.5225 289° West 366 421 38,000  Level Atlanta Center
07:43AM 34.1319 -86.6386 288° West 366 421 38,000  Level Atlanta Center
07:44AM 34.1672 -86.7553 290° West 366 421 38,000  Level Atlanta Center
07:45AM 34.1839 -86.8211 287° West 368 423 38,000  Level Memphis Center
07:46AM 34.2161 -86.9369 289° West 366 421 38,000  Level Memphis Center
07:47AM 34.2475 -87.0514 288° West 361 415 38,000  Level Memphis Center
07:48AM 34.2797 -87.1669 289° West 363 418 38,000  Level Memphis Center
07:49AM 34.3139 -87.2908 288° West 368 423 38,000  Level Memphis Center
07:50AM 34.3456 -87.4092 288° West 368 423 38,000  Level Memphis Center
07:51AM 34.3778 -87.5264 288° West 366 421 38,000  Level Memphis Center
07:52AM 34.4108 -87.6444 289° West 366 421 38,000  Level Memphis Center
07:53AM 34.4428 -87.7642 288° West 369 425 38,000  Level Memphis Center
07:54AM 34.4739 -87.8822 288° West 369 425 38,000  Level Memphis Center
07:55AM 34.5056 -88.0006 288° West 369 425 38,000  Level Memphis Center
07:56AM 34.5369 -88.1183 288° West 368 423 38,000  Level Memphis Center
07:57AM 34.5683 -88.2378 288° West 371 427 38,000  Level Memphis Center
07:58AM 34.6069 -88.3825 288° West 377 434 38,000  Level Memphis Center
07:59AM 34.6400 -88.5086 288° West 380 437 38,000  Level Memphis Center
08:00AM 34.6722 -88.6325 288° West 382 440 38,000  Level Memphis Center
08:01AM 34.7053 -88.7594 288° West 389 448 38,000  Level Memphis Center
08:02AM 34.7383 -88.8861 288° West 389 448 38,000  Level Memphis Center
08:03AM 34.7697 -89.0117 287° West 387 445 38,000  Level Memphis Center
08:04AM 34.8025 -89.1372 288° West 386 444 38,000  Level Memphis Center
08:05AM 34.8339 -89.2631 287° West 386 444 38,000  Level Memphis Center
08:06AM 34.8656 -89.3886 287° West 386 444 38,000  Level Memphis Center
08:07AM 34.8978 -89.5111 288° West 380 437 38,000  Level Memphis Center
08:08AM 34.9289 -89.6364 287° West 383 441 38,000  Level Memphis Center
08:09AM 34.9622 -89.7697 287° West 386 444 38,000  Level Memphis Center
08:10AM 34.9969 -89.9067 287° West 389 448 38,000  Level Memphis Center
08:11AM 35.0383 -90.0300 292° West 398 458 38,000  Level Memphis Center
08:12AM 35.0936 -90.1486 300° West 400 460 38,000  Level Memphis Center
08:13AM 35.1450 -90.2700 297° West 400 460 38,000  Level Memphis Center
08:14AM 35.1883 -90.3947 293° West 396 456 38,000  Level Memphis Center
08:15AM 35.2342 -90.5181 294° West 395 455 38,000  Level Memphis Center
08:16AM 35.2803 -90.6419 295° West 395 455 38,000  Level Memphis Center
08:17AM 35.3247 -90.7656 294° West 395 455 38,000  Level Memphis Center
08:18AM 35.3689 -90.8900 294° West 395 455 38,000  Level Memphis Center
08:20AM 35.4150 -91.0131 295° West 395 455 38,000  Level Memphis Center
08:21AM 35.4586 -91.1375 293° West 396 456 38,000  Level Memphis Center
08:22AM 35.5033 -91.2617 294° West 395 455 38,000  Level Memphis Center
08:23AM 35.5483 -91.3856 294° West 395 455 38,000  Level Memphis Center
08:24AM 35.5967 -91.5208 294° West 393 452 38,000  Level Memphis Center
08:25AM 35.6400 -91.6433 294° West 392 451 38,000  Level Memphis Center
08:26AM 35.6836 -91.7661 294° West 393 452 38,000  Level Memphis Center
08:27AM 35.7261 -91.8869 293° West 389 448 38,000  Level Memphis Center
08:28AM 35.7683 -92.0078 293° West 387 445 38,000  Level Memphis Center
08:29AM 35.8114 -92.1292 294° West 388 447 38,000  Level Memphis Center
08:30AM 35.8542 -92.2514 293° West 390 449 38,000  Level Memphis Center
08:31AM 35.8969 -92.3733 293° West 390 449 38,000  Level Memphis Center
08:32AM 35.9481 -92.5208 293° West 391 450 38,000  Level Memphis Center
08:33AM 35.9903 -92.6436 293° West 391 450 38,000  Level Memphis Center
08:34AM 36.0331 -92.7669 293° West 393 452 38,000  Level Memphis Center
08:35AM 36.0758 -92.8928 293° West 396 456 38,000  Level Memphis Center
08:36AM 36.1186 -93.0192 293° West 400 460 38,000  Level Memphis Center
08:37AM 36.1614 -93.1450 293° West 399 459 38,000  Level Memphis Center
08:38AM 36.2039 -93.2714 293° West 400 460 38,000  Level Memphis Center
08:39AM 36.2556 -93.4244 293° West 402 463 38,000  Level Memphis Center
08:40AM 36.2986 -93.5511 293° West 402 463 38,000  Level Memphis Center
08:41AM 36.3397 -93.6786 292° West 401 461 38,000  Level Memphis Center
08:42AM 36.3778 -93.7919 293° West 402 463 38,000  Level Kansas City Center
08:43AM 36.4211 -93.9203 293° West 403 464 38,000  Level Kansas City Center
08:44AM 36.4706 -94.0739 292° West 400 460 38,000  Level Kansas City Center
08:45AM 36.5133 -94.2025 293° West 402 463 38,000  Level Kansas City Center
08:46AM 36.5553 -94.3319 292° West 404 465 38,000  Level Kansas City Center
08:47AM 36.5981 -94.4619 292° West 406 467 38,000  Level Kansas City Center
08:48AM 36.6394 -94.5936 291° West 408 470 38,000  Level Kansas City Center
08:49AM 36.6822 -94.7244 292° West 409 471 38,000  Level Kansas City Center
08:50AM 36.7236 -94.8575 291° West 410 472 38,000  Level Kansas City Center
08:51AM 36.7664 -94.9889 292° West 411 473 38,000  Level Kansas City Center
08:52AM 36.8075 -95.1211 291° West 412 474 38,000  Level Kansas City Center
08:53AM 36.8569 -95.2794 291° West 410 472 38,000  Level Kansas City Center
08:54AM 36.8986 -95.4139 291° West 415 478 38,000  Level Kansas City Center
08:55AM 36.9408 -95.5478 292° West 416 479 38,000  Level Kansas City Center
08:56AM 36.9833 -95.6828 292° West 417 480 38,000  Level Kansas City Center
08:57AM 37.0242 -95.8178 291° West 417 480 38,000  Level Kansas City Center
08:58AM 37.0664 -95.9544 291° West 419 482 38,000  Level Kansas City Center
08:59AM 37.1081 -96.0908 291° West 419 482 38,000  Level Kansas City Center
09:00AM 37.1500 -96.2275 291° West 420 483 38,000  Level Kansas City Center
09:01AM 37.1997 -96.3933 291° West 422 486 38,000  Level Kansas City Center
09:02AM 37.2417 -96.5328 291° West 424 488 38,000  Level Kansas City Center
09:03AM 37.2847 -96.6731 291° West 429 494 38,000  Level Kansas City Center
09:04AM 37.3261 -96.8119 291° West 427 491 38,000  Level Kansas City Center
09:05AM 37.3672 -96.9525 290° West 427 491 38,000  Level Kansas City Center
09:07AM 37.4097 -97.0922 291° West 428 493 38,000  Level Kansas City Center
09:08AM 37.4503 -97.2328 290° West 427 491 38,000  Level Kansas City Center
09:09AM 37.4919 -97.3744 290° West 429 494 38,000  Level Kansas City Center
09:10AM 37.5328 -97.5158 290° West 430 495 38,000  Level Kansas City Center
09:11AM 37.5742 -97.6597 290° West 433 498 38,000  Level Kansas City Center
09:12AM 37.6150 -97.8042 290° West 434 499 38,000  Level Kansas City Center
09:13AM 37.6644 -97.9747 290° West 435 501 38,000  Level Kansas City Center
09:14AM 37.7050 -98.1183 290° West 434 499 38,000  Level Kansas City Center
09:15AM 37.7489 -98.2681 290° West 434 499 38,000  Level Kansas City Center
09:16AM 37.7892 -98.4117 290° West 432 497 38,000  Level Kansas City Center
09:17AM 37.8275 -98.5539 289° West 428 493 38,000  Level Kansas City Center
09:18AM 37.8667 -98.6958 289° West 427 491 38,000  Level Kansas City Center
09:19AM 37.9064 -98.8378 290° West 427 491 38,000  Level Kansas City Center
09:20AM 37.9456 -98.9814 289° West 430 495 38,000  Level Kansas City Center
09:21AM 37.9867 -99.1256 290° West 433 498 38,000  Level Kansas City Center
09:22AM 38.0267 -99.2700 289° West 434 499 38,000  Level Kansas City Center
09:23AM 38.0744 -99.4450 289° West 437 503 38,000  Level Kansas City Center
09:24AM 38.1153 -99.5992 289° West 440 506 38,000  Level Kansas City Center
09:25AM 38.1519 -99.7397 288° West 440 506 38,000  Level Kansas City Center
09:26AM 38.1964 -99.9044 289° West 441 507 38,000  Level Kansas City Center
09:27AM 38.2322 -100.0467 288° West 443 510 38,000  Level Kansas City Center
09:28AM 38.2714 -100.1881 289° West 444 511 38,000  Level Kansas City Center
09:29AM 38.3128 -100.3536 288° West 443 510 38,000  Level Kansas City Center
09:30AM 38.3497 -100.4967 288° West 445 512 38,000  Level Kansas City Center
09:31AM 38.3928 -100.6650 288° West 448 516 38,000  Level Kansas City Center
09:32AM 38.4297 -100.8081 288° West 447 514 38,000  Level Kansas City Center
09:33AM 38.4728 -100.9758 288° West 450 518 38,000  Level Denver Center
09:34AM 38.5089 -101.1203 288° West 448 516 38,000  Level Denver Center
09:35AM 38.5453 -101.2653 288° West 449 517 38,000 -420 Level Denver Center
09:36AM 38.5869 -101.4353 287° West 451 519 37,200 -840 Descending Denver Center
09:37AM 38.6236 -101.5839 288° West 457 526 36,300 -900 Descending Denver Center
09:38AM 38.6622 -101.7331 288° West 462 532 35,400 -1,020 Descending Denver Center
09:39AM 38.7031 -101.9044 287° West 453 521 34,300 -720 Descending Denver Center
09:40AM 38.7381 -102.0467 288° West 440 506 34,000 -180 Descending Denver Center
09:41AM 38.7789 -102.2172 287° West 446 513 34,000  Level Denver Center
09:42AM 38.8211 -102.3569 291° West 442 509 34,000  Level Denver Center
09:43AM 38.8733 -102.4925 296° West 442 509 34,000  Level Denver Center
09:44AM 38.9314 -102.6519 295° West 443 510 34,000  Level Denver Center
09:45AM 38.9858 -102.7994 295° West 440 506 34,000  Level Denver Center
09:46AM 39.0394 -102.9425 296° West 443 510 34,000  Level Denver Center
09:47AM 39.0906 -103.0858 295° West 442 509 34,000 -660 Level Denver Center
09:48AM 39.1431 -103.2286 295° West 442 509 32,700 -2,100 Descending Denver Center
09:49AM 39.1928 -103.3706 294° West 438 504 29,800 -3,060 Descending Denver Center
09:50AM 39.2447 -103.5108 296° West 436 502 26,500 -3,360 Descending Denver Center
09:52AM 39.2947 -103.6508 295° West 432 497 23,000 -3,420 Descending Denver Center
09:53AM 39.3436 -103.7903 294° West 428 493 19,600 -3,180 Descending Denver Center
09:54AM 39.3969 -103.9439 294° West 424 488 16,600 -2,460 Descending Denver Center
09:55AM 39.4633 -104.0478 310° West 371 427 14,600 -1,800 Descending Denver Center
09:56AM 39.5317 -104.1369 315° West 354 407 13,000 -840 Descending Denver Center
09:57AM 39.6153 -104.1772 340° North 299 344 13,000 -540 Level Denver Center
09:58AM 39.6847 -104.2108 340° North 271 312 11,900 -1,260 Descending Denver Center
09:59AM 39.7561 -104.2453 340° North 273 314 10,500 -1,440 Descending Denver Center
10:00AM 39.8292 -104.2897 335° Northwest 271 312 9,000 -1,260 Descending Denver Center
10:01AM 39.8700 -104.3644 305° West 253 291 8,000 -960 Descending Denver Center
10:02AM 39.8833 -104.4500 282° West 239 275 7,100 -600 Descending Denver TRACON
10:03AM 39.8833 -104.5167 270° West 172 198 6,800 -600 Descending Denver TRACON
10:04AM 39.8833 -104.5833 270° West 149 171 6,000 -720 Descending Denver TRACON
10:05AM 39.8772 -104.6319 261° West 145 167 5,300 -660 Descending Denver Center
10:07AM 39.8500 -104.6667 North  Level FlightAware Approximate
10:14AM 39.8617 -104.6732 North  Level Estimated
10:15AM 39.8617 -104.6732 North  Level Estimated
10:16AM 39.8617 -104.6732 North  Level Estimated